createdAt,value
2023-04-11T00:00:30.499Z,2.00
2023-04-11T00:03:00.099Z,1.00
2023-04-11T00:05:27.983Z,3.20
2023-04-11T00:07:54.526Z,1.37
2023-04-11T00:10:21.081Z,1.90
2023-04-11T00:12:47.579Z,2.40
2023-04-11T00:15:16.150Z,1.43
2023-04-11T00:17:45.652Z,0.70
2023-04-11T00:20:13.036Z,1.57
2023-04-11T00:22:39.546Z,1.17
2023-04-11T00:25:07.218Z,1.80
2023-04-11T00:27:33.671Z,2.33
2023-04-11T00:30:00.784Z,0.93
2023-04-11T00:32:27.596Z,1.47
2023-04-11T00:34:55.264Z,2.03
2023-04-11T00:37:22.119Z,0.70
2023-04-11T00:39:50.497Z,1.43
2023-04-11T00:42:17.273Z,3.57
2023-04-11T00:44:45.241Z,1.63
2023-04-11T00:47:12.364Z,3.20
2023-04-11T00:49:39.697Z,2.57
2023-04-11T00:52:08.212Z,4.60
2023-04-11T00:54:34.988Z,2.40
2023-04-11T00:57:03.466Z,2.57
2023-04-11T00:59:32.117Z,2.37
2023-04-11T01:01:59.620Z,1.70
2023-04-11T01:04:26.326Z,4.07
2023-04-11T01:07:03.877Z,2.90
2023-04-11T01:09:32.988Z,1.60
2023-04-11T01:12:01.392Z,2.70
2023-04-11T01:14:28.700Z,1.83
2023-04-11T01:16:56.728Z,1.53
2023-04-11T01:19:26.638Z,1.47
2023-04-11T01:21:55.786Z,2.03
2023-04-11T01:24:23.220Z,3.07
2023-04-11T01:26:49.849Z,2.07
2023-04-11T01:29:16.650Z,4.17
2023-04-11T01:31:43.931Z,2.93
2023-04-11T01:34:14.059Z,2.80
2023-04-11T01:36:42.369Z,2.47
2023-04-11T01:39:09.297Z,2.60
2023-04-11T01:41:36.438Z,2.70
2023-04-11T01:44:04.011Z,2.30
2023-04-11T01:46:31.221Z,1.87
2023-04-11T01:49:00.332Z,2.20
2023-04-11T01:51:27.659Z,2.30
2023-04-11T01:53:54.299Z,2.93
2023-04-11T01:56:20.847Z,3.47
2023-04-11T01:58:47.423Z,3.87
2023-04-11T02:01:18.021Z,1.90
2023-04-11T02:03:45.222Z,2.20
2023-04-11T02:06:11.964Z,3.53
2023-04-11T02:08:38.438Z,2.10
2023-04-11T02:11:05.273Z,2.83
2023-04-11T02:13:31.708Z,2.33
2023-04-11T02:16:16.040Z,2.03
2023-04-11T02:18:43.918Z,3.20
2023-04-11T02:21:10.825Z,3.83
2023-04-11T02:23:37.723Z,2.33
2023-04-11T02:26:05.771Z,2.43
2023-04-11T02:28:32.269Z,2.50
2023-04-11T02:30:58.816Z,3.30
2023-04-11T02:33:26.182Z,2.40
2023-04-11T02:35:52.655Z,4.37
2023-04-11T02:38:20.689Z,4.53
2023-04-11T02:40:47.520Z,6.10
2023-04-11T02:43:14.031Z,3.10
2023-04-11T02:45:41.309Z,3.90
2023-04-11T02:48:08.479Z,6.93
2023-04-11T02:50:41.100Z,4.30
2023-04-11T02:53:08.083Z,3.70
2023-04-11T02:55:38.058Z,3.63
2023-04-11T02:58:04.518Z,2.70
2023-04-11T03:00:31.293Z,3.80
2023-04-11T03:03:03.426Z,3.60
2023-04-11T03:05:35.576Z,3.13
2023-04-11T03:08:02.648Z,6.27
2023-04-11T03:10:31.203Z,4.13
2023-04-11T03:12:59.534Z,3.90
2023-04-11T03:15:26.821Z,5.00
2023-04-11T03:17:54.557Z,5.10
2023-04-11T03:20:22.329Z,3.93
2023-04-11T03:22:52.216Z,3.77
2023-04-11T03:25:19.867Z,3.30
2023-04-11T03:27:48.869Z,2.93
2023-04-11T03:30:15.776Z,3.43
2023-04-11T03:32:45.560Z,3.10
2023-04-11T03:35:12.136Z,2.83
2023-04-11T03:37:43.360Z,1.83
2023-04-11T03:40:10.343Z,3.60
2023-04-11T03:42:40.079Z,1.83
2023-04-11T03:45:09.841Z,2.00
2023-04-11T03:47:36.503Z,1.70
2023-04-11T03:50:05.133Z,3.47
2023-04-11T03:52:38.043Z,3.33
2023-04-11T03:55:09.961Z,1.67
2023-04-11T03:57:36.443Z,1.50
2023-04-11T04:00:05.823Z,2.30
2023-04-11T04:02:41.804Z,4.40
2023-04-11T04:05:11.710Z,3.87
2023-04-11T04:07:39.821Z,2.87
2023-04-11T04:10:13.098Z,1.63
2023-04-11T04:12:41.672Z,1.30
2023-04-11T04:15:14.858Z,1.10
2023-04-11T04:17:43.681Z,2.53
2023-04-11T04:20:17.286Z,1.80
2023-04-11T04:22:48.984Z,4.07
2023-04-11T04:25:20.172Z,2.60
2023-04-11T04:27:48.659Z,1.90
2023-04-11T04:30:15.617Z,4.60
2023-04-11T04:33:00.802Z,2.53
2023-04-11T04:35:29.676Z,4.20
2023-04-11T04:38:06.171Z,3.73
2023-04-11T04:40:44.799Z,2.53
2023-04-11T04:43:18.404Z,2.00
2023-04-11T04:46:08.524Z,1.30
2023-04-11T04:48:42.328Z,3.03
2023-04-11T04:51:08.874Z,3.17
2023-04-11T04:53:38.709Z,2.37
2023-04-11T04:56:07.316Z,2.07
2023-04-11T04:58:38.091Z,3.10
2023-04-11T05:01:09.114Z,3.83
2023-04-11T05:03:38.582Z,3.43
2023-04-11T05:06:09.664Z,4.27
2023-04-11T05:08:37.332Z,3.70
2023-04-11T05:11:06.450Z,6.03
2023-04-11T05:13:34.407Z,4.97
2023-04-11T05:16:02.581Z,7.70
2023-04-11T05:18:30.532Z,6.33
2023-04-11T05:20:57.604Z,5.57
2023-04-11T05:23:29.920Z,3.33
2023-04-11T05:25:59.928Z,4.47
2023-04-11T05:28:26.721Z,4.33
2023-04-11T05:30:53.666Z,3.90
2023-04-11T05:33:21.714Z,3.50
2023-04-11T05:35:48.211Z,3.27
2023-04-11T05:38:14.702Z,2.87
2023-04-11T05:40:41.133Z,6.03
2023-04-11T05:43:08.459Z,3.93
2023-04-11T05:45:34.985Z,4.30
2023-04-11T05:48:01.549Z,3.33
2023-04-11T05:50:28.261Z,6.87
2023-04-11T05:52:54.707Z,2.37
2023-04-11T05:55:21.138Z,5.73
2023-04-11T05:57:47.656Z,3.63
2023-04-11T06:00:16.748Z,3.90
2023-04-11T06:02:44.275Z,4.33
2023-04-11T06:05:11.876Z,5.50
2023-04-11T06:07:39.466Z,5.37
2023-04-11T06:10:09.366Z,3.00
2023-04-11T06:12:36.024Z,6.67
2023-04-11T06:15:02.773Z,3.43
2023-04-11T06:17:29.329Z,5.37
2023-04-11T06:19:55.909Z,3.87
2023-04-11T06:22:22.378Z,5.30
2023-04-11T06:24:49.013Z,5.33
2023-04-11T06:27:15.818Z,2.67
2023-04-11T06:29:45.744Z,4.80
2023-04-11T06:32:12.434Z,8.13
2023-04-11T06:34:39.509Z,5.23
2023-04-11T06:37:08.962Z,2.80
2023-04-11T06:39:36.116Z,6.87
2023-04-11T06:42:03.226Z,4.53
2023-04-11T06:44:31.985Z,2.63
2023-04-11T06:46:59.282Z,6.10
2023-04-11T06:49:28.150Z,5.63
2023-04-11T06:51:55.780Z,5.37
2023-04-11T06:54:22.824Z,2.70
2023-04-11T06:56:50.659Z,7.30
2023-04-11T06:59:19.621Z,6.40
2023-04-11T07:01:46.537Z,4.73
2023-04-11T07:04:13.153Z,4.50
2023-04-11T07:06:39.727Z,6.07
2023-04-11T07:09:06.909Z,5.73
2023-04-11T07:11:33.653Z,7.10
2023-04-11T07:14:00.532Z,3.47
2023-04-11T07:16:27.255Z,6.00
2023-04-11T07:18:54.779Z,3.80
2023-04-11T07:21:21.348Z,2.37
2023-04-11T07:23:48.388Z,3.30
2023-04-11T07:26:16.797Z,3.33
2023-04-11T07:28:45.041Z,4.30
2023-04-11T07:31:12.345Z,3.53
2023-04-11T07:33:39.168Z,3.47
2023-04-11T07:36:06.830Z,2.10
2023-04-11T07:38:34.217Z,4.03
2023-04-11T07:41:02.349Z,3.53
2023-04-11T07:43:29.408Z,4.80
2023-04-11T07:45:57.421Z,5.00
2023-04-11T07:48:25.400Z,4.10
2023-04-11T07:50:52.693Z,4.53
2023-04-11T07:53:19.236Z,3.90
2023-04-11T07:55:45.658Z,4.33
2023-04-11T07:58:12.178Z,4.50
2023-04-11T08:00:38.750Z,3.83
2023-04-11T08:03:09.920Z,5.63
2023-04-11T08:05:37.162Z,6.63
2023-04-11T08:08:04.941Z,5.30
2023-04-11T08:10:31.575Z,5.40
2023-04-11T08:13:01.127Z,7.00
2023-04-11T08:15:27.585Z,4.43
2023-04-11T08:17:57.135Z,4.70
2023-04-11T08:20:24.436Z,4.73
2023-04-11T08:22:51.090Z,7.80
2023-04-11T08:25:22.688Z,9.37
2023-04-11T08:27:50.784Z,6.27
2023-04-11T08:30:17.835Z,3.87
2023-04-11T08:32:44.669Z,7.60
2023-04-11T08:35:11.283Z,6.57
2023-04-11T08:37:37.900Z,5.73
2023-04-11T08:40:06.870Z,5.03
2023-04-11T08:42:34.238Z,6.03
2023-04-11T08:45:09.225Z,9.63
2023-04-11T08:47:39.125Z,9.03
2023-04-11T08:50:06.654Z,6.67
2023-04-11T08:52:34.021Z,8.27
2023-04-11T08:55:01.550Z,5.83
2023-04-11T08:57:33.209Z,6.53
2023-04-11T09:00:11.868Z,5.03
2023-04-11T09:03:08.536Z,8.93
2023-04-11T09:05:36.123Z,6.40
2023-04-11T09:08:04.915Z,3.07
2023-04-11T09:10:31.844Z,6.13
2023-04-11T09:12:59.125Z,5.87
2023-04-11T09:15:30.681Z,4.67
2023-04-11T09:18:00.250Z,5.93
2023-04-11T09:20:30.038Z,7.27
2023-04-11T09:22:58.805Z,3.10
2023-04-11T09:25:25.338Z,5.13
2023-04-11T09:28:07.757Z,6.37
2023-04-11T09:30:34.936Z,2.67
2023-04-11T09:33:18.422Z,5.80
2023-04-11T09:35:47.705Z,4.47
2023-04-11T09:38:14.158Z,7.13
2023-04-11T09:40:43.758Z,3.30
2023-04-11T09:43:10.257Z,4.47
2023-04-11T09:45:47.658Z,4.97
2023-04-11T09:48:22.076Z,12.70
2023-04-11T09:50:53.649Z,4.17
2023-04-11T09:53:20.686Z,5.73
2023-04-11T09:55:47.201Z,3.30
2023-04-11T09:58:14.460Z,3.77
2023-04-11T10:00:41.522Z,3.47
2023-04-11T10:03:08.134Z,5.00
2023-04-11T10:05:34.906Z,5.53
2023-04-11T10:08:17.265Z,4.87
2023-04-11T10:10:45.007Z,2.53
2023-04-11T10:13:40.343Z,2.47
2023-04-11T10:16:12.185Z,2.33
2023-04-11T10:19:00.215Z,4.23
2023-04-11T10:21:37.063Z,3.53
2023-04-11T10:24:18.267Z,3.27
2023-04-11T10:26:59.502Z,3.00
2023-04-11T10:29:40.798Z,4.93
2023-04-11T10:32:12.222Z,5.13
2023-04-11T10:34:41.881Z,5.40
2023-04-11T10:37:09.773Z,4.73
2023-04-11T10:39:51.679Z,5.83
2023-04-11T10:42:39.316Z,3.73
2023-04-11T10:45:21.777Z,6.37
2023-04-11T10:47:51.325Z,5.83
2023-04-11T10:50:41.119Z,2.83
2023-04-11T10:53:36.274Z,5.53
2023-04-11T10:56:03.213Z,1.77
2023-04-11T10:58:38.726Z,5.63
2023-04-11T11:01:25.723Z,1.80
2023-04-11T11:03:59.451Z,2.77
2023-04-11T11:06:26.476Z,3.10
2023-04-11T11:08:53.131Z,2.83
2023-04-11T11:11:19.770Z,3.27
2023-04-11T11:13:53.729Z,4.03
2023-04-11T11:16:25.636Z,3.50
2023-04-11T11:18:54.621Z,5.07
2023-04-11T11:21:27.661Z,2.30
2023-04-11T11:23:55.167Z,4.70
2023-04-11T11:26:22.161Z,3.43
2023-04-11T11:28:48.979Z,3.47
2023-04-11T11:31:15.573Z,4.03
2023-04-11T11:33:42.185Z,3.67
2023-04-11T11:36:09.495Z,3.30
2023-04-11T11:38:37.058Z,1.57
2023-04-11T11:41:04.436Z,5.57
2023-04-11T11:43:35.876Z,4.47
2023-04-11T11:46:11.365Z,3.67
2023-04-11T11:48:37.989Z,1.57
2023-04-11T11:51:04.767Z,2.53
2023-04-11T11:53:31.247Z,5.60
2023-04-11T11:55:58.132Z,4.37
2023-04-11T11:58:24.988Z,3.87
2023-04-11T12:00:52.436Z,4.40
2023-04-11T12:03:24.015Z,1.87
2023-04-11T12:05:55.170Z,2.53
2023-04-11T12:08:24.201Z,2.87
2023-04-11T12:10:51.412Z,3.87
2023-04-11T12:13:25.348Z,2.53
2023-04-11T12:15:55.587Z,2.20
2023-04-11T12:18:27.484Z,3.47
2023-04-11T12:20:54.924Z,3.53
2023-04-11T12:23:21.514Z,3.17
2023-04-11T12:25:48.119Z,2.97
2023-04-11T12:28:14.759Z,1.53
2023-04-11T12:30:41.615Z,2.60
2023-04-11T12:33:08.151Z,4.53
2023-04-11T12:35:34.843Z,2.47
2023-04-11T12:38:01.737Z,2.03
2023-04-11T12:40:29.774Z,3.53
2023-04-11T12:42:57.551Z,4.13
2023-04-11T12:45:24.818Z,2.50
2023-04-11T12:47:51.391Z,3.07
2023-04-11T12:50:18.115Z,3.63
2023-04-11T12:52:44.797Z,2.50
2023-04-11T12:55:13.192Z,3.97
2023-04-11T12:57:39.978Z,3.77
2023-04-11T13:00:08.850Z,3.17
2023-04-11T13:02:42.235Z,3.53
2023-04-11T13:05:13.908Z,4.07
2023-04-11T13:07:41.117Z,3.70
2023-04-11T13:10:09.227Z,2.63
2023-04-11T13:12:41.114Z,2.17
2023-04-11T13:15:09.809Z,3.90
2023-04-11T13:17:36.470Z,1.40
2023-04-11T13:20:07.394Z,2.30
2023-04-11T13:22:34.186Z,1.07
2023-04-11T13:25:00.663Z,2.97
2023-04-11T13:27:27.566Z,1.80
2023-04-11T13:29:54.103Z,1.87
2023-04-11T13:32:21.033Z,2.20
2023-04-11T13:34:47.618Z,3.10
2023-04-11T13:37:14.131Z,1.90
2023-04-11T13:39:40.693Z,3.73
2023-04-11T13:42:07.177Z,3.90
2023-04-11T13:44:33.669Z,2.00
2023-04-11T13:47:01.229Z,1.97
2023-04-11T13:49:27.668Z,2.43
2023-04-11T13:51:54.187Z,2.47
2023-04-11T13:54:20.666Z,5.17
2023-04-11T13:56:47.205Z,2.07
2023-04-11T13:59:13.713Z,4.53
2023-04-11T14:01:40.497Z,2.20
2023-04-11T14:04:07.357Z,2.93
2023-04-11T14:06:35.291Z,4.87
2023-04-11T14:09:01.740Z,2.23
2023-04-11T14:11:28.197Z,4.13
2023-04-11T14:13:54.962Z,3.53
2023-04-11T14:16:21.587Z,3.57
2023-04-11T14:18:48.101Z,3.80
2023-04-11T14:21:14.582Z,2.47
2023-04-11T14:23:41.382Z,2.37
2023-04-11T14:26:07.925Z,2.83
2023-04-11T14:28:34.716Z,1.50
2023-04-11T14:31:01.333Z,1.77
2023-04-11T14:33:27.876Z,3.50
2023-04-11T14:35:54.594Z,5.73
2023-04-11T14:38:21.110Z,5.03
2023-04-11T14:40:47.609Z,2.20
2023-04-11T14:43:14.024Z,3.30
2023-04-11T14:45:40.598Z,4.93
2023-04-11T14:48:07.229Z,3.17
2023-04-11T14:50:33.846Z,5.80
2023-04-11T14:53:00.939Z,1.63
2023-04-11T14:55:27.507Z,4.20
2023-04-11T14:57:56.603Z,3.33
2023-04-11T15:00:24.759Z,2.03
2023-04-11T15:02:56.489Z,3.87
2023-04-11T15:05:23.778Z,3.10
2023-04-11T15:07:51.866Z,2.30
2023-04-11T15:10:20.387Z,2.37
2023-04-11T15:12:47.086Z,2.23
2023-04-11T15:15:14.064Z,3.67
2023-04-11T15:17:43.006Z,2.77
2023-04-11T15:20:11.695Z,1.43
2023-04-11T15:22:43.666Z,2.20
2023-04-11T15:25:15.501Z,2.53
2023-04-11T15:27:42.734Z,3.30
2023-04-11T15:30:10.391Z,2.17
2023-04-11T15:32:42.023Z,2.77
2023-04-11T15:35:09.135Z,2.80
2023-04-11T15:37:35.680Z,1.53
2023-04-11T15:40:05.914Z,4.70
2023-04-11T15:42:35.342Z,2.63
2023-04-11T15:45:02.447Z,2.40
2023-04-11T15:47:29.253Z,1.77
2023-04-11T15:49:56.268Z,3.70
2023-04-11T15:52:22.926Z,2.63
2023-04-11T15:54:49.452Z,3.87
2023-04-11T15:57:18.314Z,5.00
2023-04-11T15:59:45.642Z,4.40
2023-04-11T16:02:12.490Z,3.23
2023-04-11T16:04:39.245Z,4.13
2023-04-11T16:07:06.642Z,3.10
2023-04-11T16:09:34.682Z,3.17
2023-04-11T16:12:01.740Z,2.97
2023-04-11T16:14:29.218Z,3.97
2023-04-11T16:16:57.533Z,5.77
2023-04-11T16:19:24.101Z,2.17
2023-04-11T16:21:50.936Z,5.07
2023-04-11T16:24:18.880Z,1.73
2023-04-11T16:26:45.656Z,2.00
2023-04-11T16:29:12.198Z,2.00
2023-04-11T16:31:38.713Z,3.63
2023-04-11T16:34:05.332Z,5.27
2023-04-11T16:36:32.071Z,4.77
2023-04-11T16:38:58.602Z,3.50
2023-04-11T16:41:25.347Z,3.00
2023-04-11T16:43:52.063Z,2.40
2023-04-11T16:46:18.742Z,2.93
2023-04-11T16:48:45.420Z,3.23
2023-04-11T16:51:13.154Z,2.47
2023-04-11T16:53:40.854Z,6.43
2023-04-11T16:56:07.580Z,3.33
2023-04-11T16:58:34.428Z,6.30
2023-04-11T17:01:01.807Z,4.53
2023-04-11T17:03:28.797Z,3.60
2023-04-11T17:05:55.959Z,2.97
2023-04-11T17:08:23.920Z,4.30
2023-04-11T17:10:50.497Z,4.97
2023-04-11T17:13:18.596Z,3.63
2023-04-11T17:15:45.966Z,3.37
2023-04-11T17:18:14.862Z,6.13
2023-04-11T17:20:43.417Z,2.80
2023-04-11T17:23:10.197Z,5.20
2023-04-11T17:25:36.744Z,3.57
2023-04-11T17:28:03.354Z,3.10
2023-04-11T17:30:30.928Z,5.80
2023-04-11T17:32:57.708Z,2.83
2023-04-11T17:35:24.295Z,4.70
2023-04-11T17:37:50.870Z,5.17
2023-04-11T17:40:17.587Z,3.73
2023-04-11T17:42:45.771Z,2.77
2023-04-11T17:45:17.155Z,4.30
2023-04-11T17:47:44.728Z,6.27
2023-04-11T17:50:13.282Z,4.00
2023-04-11T17:52:44.300Z,3.50
2023-04-11T17:55:12.922Z,5.03
2023-04-11T17:57:39.819Z,2.10
2023-04-11T18:00:28.170Z,4.27
2023-04-11T18:02:59.904Z,3.97
2023-04-11T18:05:29.049Z,4.03
2023-04-11T18:07:57.443Z,7.40
2023-04-11T18:10:25.874Z,4.40
2023-04-11T18:12:53.907Z,6.93
2023-04-11T18:15:21.818Z,2.00
2023-04-11T18:17:48.416Z,3.27
2023-04-11T18:20:15.427Z,5.83
2023-04-11T18:22:44.800Z,3.70
2023-04-11T18:25:11.770Z,5.30
2023-04-11T18:27:39.573Z,6.97
2023-04-11T18:30:16.229Z,4.17
2023-04-11T18:32:49.081Z,4.30
2023-04-11T18:35:17.172Z,5.70
2023-04-11T18:37:43.975Z,7.27
2023-04-11T18:40:13.856Z,2.30
2023-04-11T18:42:42.485Z,7.10
2023-04-11T18:45:11.422Z,3.97
2023-04-11T18:47:39.803Z,6.67
2023-04-11T18:50:07.291Z,5.90
2023-04-11T18:52:34.972Z,3.93
2023-04-11T18:55:01.671Z,4.33
2023-04-11T18:57:32.807Z,15.63
2023-04-11T19:02:35.365Z,23.97
2023-04-11T19:05:02.137Z,17.73
2023-04-11T19:07:28.998Z,16.07
2023-04-11T19:09:55.529Z,9.87
2023-04-11T19:12:22.005Z,6.20
2023-04-11T19:14:48.551Z,7.60
2023-04-11T19:17:15.268Z,6.07
2023-04-11T19:19:43.210Z,3.90
2023-04-11T19:22:09.720Z,4.67
2023-04-11T19:24:36.306Z,4.60
2023-04-11T19:27:02.973Z,6.30
2023-04-11T19:29:29.472Z,5.43
2023-04-11T19:31:56.000Z,6.03
2023-04-11T19:34:22.808Z,6.03
2023-04-11T19:36:49.254Z,6.83
2023-04-11T19:39:15.722Z,5.37
2023-04-11T19:41:46.370Z,3.00
2023-04-11T19:44:13.381Z,9.00
2023-04-11T19:46:40.149Z,5.60
2023-04-11T19:49:06.818Z,5.33
2023-04-11T19:51:33.423Z,6.13
2023-04-11T19:54:00.044Z,5.43
2023-04-11T19:56:26.613Z,6.67
2023-04-11T19:58:53.288Z,4.07
2023-04-11T20:01:19.937Z,3.77
2023-04-11T20:03:46.553Z,8.70
2023-04-11T20:06:13.613Z,5.57
2023-04-11T20:08:40.132Z,6.07
2023-04-11T20:11:06.658Z,11.47
2023-04-11T20:13:33.918Z,12.33
2023-04-11T20:16:04.557Z,14.80
2023-04-11T20:18:31.390Z,12.50
2023-04-11T20:20:58.258Z,12.57
2023-04-11T20:23:24.821Z,12.23
2023-04-11T20:25:51.387Z,6.37
2023-04-11T20:28:18.129Z,7.83
2023-04-11T20:30:44.680Z,6.27
2023-04-11T20:33:11.447Z,8.13
2023-04-11T20:35:38.109Z,7.70
2023-04-11T20:38:04.631Z,6.63
2023-04-11T20:40:31.190Z,7.63
2023-04-11T20:43:00.184Z,7.83
2023-04-11T20:45:27.910Z,7.07
2023-04-11T20:47:55.436Z,6.33
2023-04-11T20:50:21.929Z,7.87
2023-04-11T20:52:51.256Z,6.77
2023-04-11T20:55:18.010Z,8.93
2023-04-11T20:57:47.415Z,4.33
2023-04-11T21:00:14.335Z,6.23
2023-04-11T21:02:43.980Z,7.93
2023-04-11T21:05:11.930Z,6.93
2023-04-11T21:07:39.444Z,7.07
2023-04-11T21:10:07.419Z,7.40
2023-04-11T21:12:34.740Z,8.70
2023-04-11T21:15:02.418Z,5.70
2023-04-11T21:17:32.734Z,5.40
2023-04-11T21:20:00.218Z,11.57
2023-04-11T21:22:26.917Z,8.37
2023-04-11T21:24:53.347Z,4.87
2023-04-11T21:27:19.791Z,8.73
2023-04-11T21:29:46.209Z,2.93
2023-04-11T21:32:12.660Z,7.83
2023-04-11T21:34:39.133Z,5.37
2023-04-11T21:37:05.656Z,5.23
2023-04-11T21:39:32.112Z,5.03
2023-04-11T21:41:58.599Z,5.90
2023-04-11T21:44:25.053Z,6.57
2023-04-11T21:46:51.818Z,3.90
2023-04-11T21:49:18.448Z,3.00
2023-04-11T21:51:44.895Z,3.77
2023-04-11T21:54:11.368Z,8.20
2023-04-11T21:56:37.878Z,4.83
2023-04-11T21:59:04.321Z,5.00
2023-04-11T22:01:30.868Z,6.23
2023-04-11T22:03:58.949Z,8.73
2023-04-11T22:06:26.603Z,7.67
2023-04-11T22:08:53.115Z,9.03
2023-04-11T22:11:20.303Z,6.93
2023-04-11T22:13:46.920Z,9.77
2023-04-11T22:16:14.136Z,8.67
2023-04-11T22:18:47.039Z,10.47
2023-04-11T22:21:20.546Z,8.17
2023-04-11T22:23:54.756Z,9.43
2023-04-11T22:26:29.177Z,7.80
2023-04-11T22:28:58.314Z,11.00
2023-04-11T22:31:30.646Z,5.77
2023-04-11T22:33:57.727Z,6.17
2023-04-11T22:36:24.644Z,5.77
2023-04-11T22:38:51.110Z,7.27
2023-04-11T22:41:17.671Z,7.03
2023-04-11T22:43:44.576Z,6.50
2023-04-11T22:46:11.250Z,6.20
2023-04-11T22:48:37.831Z,6.30
2023-04-11T22:51:05.919Z,6.93
2023-04-11T22:53:34.162Z,6.50
2023-04-11T22:56:01.982Z,6.73
2023-04-11T22:58:28.490Z,7.30
2023-04-11T23:00:55.622Z,7.30
2023-04-11T23:03:22.181Z,8.73
2023-04-11T23:05:48.759Z,7.43
2023-04-11T23:08:15.262Z,8.20
2023-04-11T23:10:42.551Z,6.03
2023-04-11T23:13:09.274Z,3.53
2023-04-11T23:15:37.275Z,6.87
2023-04-11T23:18:03.881Z,4.43
2023-04-11T23:20:30.461Z,3.83
2023-04-11T23:22:58.334Z,8.53
2023-04-11T23:25:25.230Z,6.10
2023-04-11T23:27:52.546Z,4.93
2023-04-11T23:30:20.041Z,3.57
2023-04-11T23:32:47.111Z,5.90
2023-04-11T23:35:16.663Z,5.93
2023-04-11T23:37:43.381Z,6.27
2023-04-11T23:40:11.108Z,5.17
2023-04-11T23:42:38.539Z,4.03
2023-04-11T23:45:06.620Z,5.40
2023-04-11T23:47:33.709Z,3.60
2023-04-11T23:50:02.038Z,4.03
2023-04-11T23:52:29.140Z,5.97
2023-04-11T23:54:56.408Z,2.40
2023-04-11T23:57:23.416Z,5.70
2023-04-11T23:59:49.854Z,3.80
